Time;durP1;ratioP1;P1;durP2;ratioP2;P2;SDS_P1;SDS_P2;PMS_P1;PMS_P2;Temp;Humidity;BMP_temperature;BMP_pressure;BME280_temperature;BME280_humidity;BME280_pressure;Samples;Min_cycle;Max_cycle;Signal;HPM_P1;HPM_P2
2022/03/15 00:01:46;;;;;;;28.98;17.04;;;;;;;;;;5323309;28;20458;-68
2022/03/15 00:04:17;;;;;;;29.80;17.38;;;;;;;;;;5323430;28;20111;-68
2022/03/15 00:06:48;;;;;;;24.72;17.68;;;;;;;;;;5323462;28;20389;-67
2022/03/15 00:09:20;;;;;;;24.50;17.20;;;;;;;;;;5323995;28;20020;-69
2022/03/15 00:11:54;;;;;;;27.23;17.05;;;;;;;;;;5322537;28;20102;-68
2022/03/15 00:14:26;;;;;;;28.40;17.25;;;;;;;;;;5323813;28;20022;-68
2022/03/15 00:16:58;;;;;;;32.72;17.25;;;;;;;;;;5323573;28;20012;-68
2022/03/15 00:19:29;;;;;;;25.17;17.08;;;;;;;;;;5322852;28;20028;-68
2022/03/15 00:22:01;;;;;;;29.98;16.88;;;;;;;;;;5323487;28;20004;-68
2022/03/15 00:24:33;;;;;;;25.38;17.50;;;;;;;;;;5322607;28;20071;-68
2022/03/15 00:27:05;;;;;;;25.83;17.08;;;;;;;;;;5322490;28;20481;-67
2022/03/15 00:29:37;;;;;;;24.23;16.55;;;;;;;;;;5323247;28;20024;-67
2022/03/15 00:32:08;;;;;;;25.45;16.05;;;;;;;;;;5322669;28;20104;-67
2022/03/15 00:34:39;;;;;;;24.04;15.94;;;;;;;;;;5323526;28;20486;-68
2022/03/15 00:37:10;;;;;;;22.62;15.20;;;;;;;;;;5323259;28;20080;-67
2022/03/15 00:39:42;;;;;;;25.92;16.10;;;;;;;;;;5322287;28;20031;-67
2022/03/15 00:42:13;;;;;;;22.15;14.70;;;;;;;;;;5323422;28;20400;-67
2022/03/15 00:44:44;;;;;;;23.42;15.00;;;;;;;;;;5322831;28;20069;-68
2022/03/15 00:47:16;;;;;;;23.72;14.62;;;;;;;;;;5322658;28;20046;-68
2022/03/15 00:49:47;;;;;;;20.70;13.43;;;;;;;;;;5322387;28;20011;-70
2022/03/15 00:52:18;;;;;;;23.23;14.43;;;;;;;;;;5323356;28;20024;-68
2022/03/15 00:54:49;;;;;;;20.28;12.84;;;;;;;;;;5321981;28;20524;-68
2022/03/15 00:57:20;;;;;;;19.58;12.45;;;;;;;;;;5323388;28;20529;-68
2022/03/15 00:59:52;;;;;;;24.85;14.57;;;;;;;;;;5322741;28;20024;-68
2022/03/15 01:02:23;;;;;;;21.02;13.43;;;;;;;;;;5322527;28;20077;-68
2022/03/15 01:04:54;;;;;;;25.17;13.98;;;;;;;;;;5322930;28;20028;-69
2022/03/15 01:07:25;;;;;;;22.92;12.77;;;;;;;;;;5322677;28;20413;-67
2022/03/15 01:09:56;;;;;;;22.10;13.82;;;;;;;;;;5322705;28;20027;-67
2022/03/15 01:12:28;;;;;;;21.36;12.34;;;;;;;;;;5322807;28;20051;-67
2022/03/15 01:14:59;;;;;;;20.38;12.95;;;;;;;;;;5322105;28;20020;-68
2022/03/15 01:17:30;;;;;;;21.48;11.26;;;;;;;;;;5322937;28;20015;-67
2022/03/15 01:20:03;;;;;;;21.30;11.48;;;;;;;;;;5322800;28;20032;-68
2022/03/15 01:22:34;;;;;;;20.27;12.32;;;;;;;;;;5322055;28;20027;-68
2022/03/15 01:25:06;;;;;;;20.83;11.98;;;;;;;;;;5322749;28;20035;-68
2022/03/15 01:27:37;;;;;;;21.40;11.90;;;;;;;;;;5322696;28;20148;-68
2022/03/15 01:30:08;;;;;;;19.90;11.13;;;;;;;;;;5322052;28;20016;-69
2022/03/15 01:32:40;;;;;;;19.90;10.73;;;;;;;;;;5322723;28;20039;-69
2022/03/15 01:35:11;;;;;;;19.35;10.70;;;;;;;;;;5323641;28;20562;-67
2022/03/15 01:37:42;;;;;;;19.67;10.27;;;;;;;;;;5326447;28;20016;-67
2022/03/15 01:40:13;;;;;;;15.74;9.84;;;;;;;;;;5326403;28;20477;-67
2022/03/15 01:42:44;;;;;;;19.13;10.68;;;;;;;;;;5325411;28;20382;-68
2022/03/15 01:45:16;;;;;;;18.48;9.14;;;;;;;;;;5326930;28;20103;-67
2022/03/15 01:47:47;;;;;;;18.92;10.55;;;;;;;;;;5326050;28;20012;-67
2022/03/15 01:50:18;;;;;;;18.84;10.88;;;;;;;;;;5325887;28;20031;-68
2022/03/15 01:52:50;;;;;;;20.05;9.73;;;;;;;;;;5326310;28;20011;-68
2022/03/15 01:55:21;;;;;;;20.84;10.28;;;;;;;;;;5326653;28;20026;-67
2022/03/15 01:57:53;;;;;;;18.85;10.27;;;;;;;;;;5325266;28;20012;-68
2022/03/15 02:00:24;;;;;;;13.77;9.98;;;;;;;;;;5326377;28;20409;-68
2022/03/15 02:02:56;;;;;;;12.90;9.45;;;;;;;;;;5326017;28;20026;-68
2022/03/15 02:05:27;;;;;;;20.70;9.40;;;;;;;;;;5325785;28;20019;-68
2022/03/15 02:08:11;;;;;;;18.67;9.40;;;;;;;;;;5325885;28;20016;-68
2022/03/15 02:10:42;;;;;;;20.60;9.30;;;;;;;;;;5325065;28;20019;-68
2022/03/15 02:13:14;;;;;;;18.67;9.43;;;;;;;;;;5325499;28;20054;-68
2022/03/15 02:15:45;;;;;;;16.88;9.27;;;;;;;;;;5325739;28;20358;-69
2022/03/15 02:18:18;;;;;;;15.15;9.20;;;;;;;;;;5325543;28;20023;-68
2022/03/15 02:20:49;;;;;;;18.40;9.40;;;;;;;;;;5325560;28;20470;-68
2022/03/15 02:23:20;;;;;;;20.65;10.02;;;;;;;;;;5326123;28;20026;-67
2022/03/15 02:25:52;;;;;;;17.08;8.90;;;;;;;;;;5324634;28;20031;-67
2022/03/15 02:28:23;;;;;;;16.33;8.50;;;;;;;;;;5325988;28;20024;-68
2022/03/15 02:30:54;;;;;;;18.00;9.07;;;;;;;;;;5325324;28;20266;-68
2022/03/15 02:33:25;;;;;;;17.23;8.48;;;;;;;;;;5325007;28;20050;-67
2022/03/15 02:35:57;;;;;;;15.58;9.02;;;;;;;;;;5325079;28;20074;-68
2022/03/15 02:38:28;;;;;;;17.17;8.48;;;;;;;;;;5324740;28;20359;-68
2022/03/15 02:41:00;;;;;;;14.63;8.75;;;;;;;;;;5324985;28;20092;-67
2022/03/15 02:43:31;;;;;;;19.83;8.88;;;;;;;;;;5325236;28;20466;-67
2022/03/15 02:46:02;;;;;;;18.77;8.98;;;;;;;;;;5323851;28;20020;-68
2022/03/15 02:48:34;;;;;;;18.13;9.10;;;;;;;;;;5325039;28;20020;-68
2022/03/15 02:51:08;;;;;;;19.27;8.07;;;;;;;;;;5325351;28;20093;-68
2022/03/15 02:53:41;;;;;;;19.35;8.38;;;;;;;;;;5324608;28;20038;-68
2022/03/15 02:56:12;;;;;;;16.13;8.32;;;;;;;;;;5325120;28;20027;-68
2022/03/15 02:58:43;;;;;;;20.05;8.10;;;;;;;;;;5324879;28;20034;-68
2022/03/15 03:01:15;;;;;;;12.50;7.80;;;;;;;;;;5324380;28;20023;-68
2022/03/15 03:03:47;;;;;;;18.02;8.50;;;;;;;;;;5324516;28;20016;-68
2022/03/15 03:06:18;;;;;;;15.75;7.40;;;;;;;;;;5325323;28;20103;-68
2022/03/15 03:08:49;;;;;;;14.02;7.50;;;;;;;;;;5323621;28;20099;-68
2022/03/15 03:11:20;;;;;;;13.63;7.13;;;;;;;;;;5324661;28;20023;-67
2022/03/15 03:13:55;;;;;;;14.92;7.76;;;;;;;;;;5323338;28;20027;-68
2022/03/15 03:16:29;;;;;;;16.50;7.78;;;;;;;;;;5324846;28;20102;-68
2022/03/15 03:19:00;;;;;;;13.65;7.30;;;;;;;;;;5324290;28;20057;-67
2022/03/15 03:21:32;;;;;;;14.88;8.27;;;;;;;;;;5323761;28;20084;-69
2022/03/15 03:24:07;;;;;;;15.75;7.22;;;;;;;;;;5324379;28;20026;-68
2022/03/15 03:26:39;;;;;;;19.80;7.40;;;;;;;;;;5324663;28;20020;-68
2022/03/15 03:29:10;;;;;;;14.07;7.85;;;;;;;;;;5323717;28;20027;-68
2022/03/15 03:31:43;;;;;;;16.10;7.35;;;;;;;;;;5324468;28;20023;-69
2022/03/15 03:34:15;;;;;;;19.63;7.30;;;;;;;;;;5324245;28;20529;-68
2022/03/15 03:36:46;;;;;;;14.45;7.57;;;;;;;;;;5323424;28;20110;-68
2022/03/15 03:39:17;;;;;;;14.96;7.60;;;;;;;;;;5324264;28;20023;-69
2022/03/15 03:41:48;;;;;;;17.08;8.32;;;;;;;;;;5323021;28;20540;-68
2022/03/15 03:44:19;;;;;;;14.74;7.68;;;;;;;;;;5324474;28;20016;-68
2022/03/15 03:46:50;;;;;;;13.94;7.18;;;;;;;;;;5323972;28;20032;-68
2022/03/15 03:49:21;;;;;;;12.70;6.88;;;;;;;;;;5323778;28;20024;-69
2022/03/15 03:51:53;;;;;;;15.05;7.47;;;;;;;;;;5323606;28;20504;-68
2022/03/15 03:54:24;;;;;;;18.20;7.22;;;;;;;;;;5324109;28;20415;-68
2022/03/15 03:56:55;;;;;;;15.25;7.13;;;;;;;;;;5322876;28;20419;-68
2022/03/15 03:59:27;;;;;;;14.77;7.45;;;;;;;;;;5324057;28;20035;-68
2022/03/15 04:01:58;;;;;;;16.30;7.13;;;;;;;;;;5323529;28;20016;-68
2022/03/15 04:04:29;;;;;;;12.60;6.54;;;;;;;;;;5322815;28;20015;-67
2022/03/15 04:07:05;;;;;;;14.60;7.43;;;;;;;;;;5323809;28;20066;-67
2022/03/15 04:09:36;;;;;;;18.77;7.63;;;;;;;;;;5323576;28;20024;-67
2022/03/15 04:12:07;;;;;;;15.15;6.32;;;;;;;;;;5322618;28;20450;-68
2022/03/15 04:14:38;;;;;;;13.05;6.78;;;;;;;;;;5323611;28;20470;-68
2022/03/15 04:17:10;;;;;;;19.95;7.22;;;;;;;;;;5322819;28;20024;-68
2022/03/15 04:19:41;;;;;;;12.20;6.57;;;;;;;;;;5323554;28;20051;-67
2022/03/15 04:22:12;;;;;;;11.38;6.75;;;;;;;;;;5323452;28;20403;-67
2022/03/15 04:24:43;;;;;;;17.20;7.72;;;;;;;;;;5322920;28;20016;-68
2022/03/15 04:27:16;;;;;;;15.85;7.40;;;;;;;;;;5323702;28;20014;-67
2022/03/15 04:29:47;;;;;;;15.38;6.72;;;;;;;;;;5323201;28;20046;-68
2022/03/15 04:32:18;;;;;;;13.54;7.50;;;;;;;;;;5322899;28;20031;-68
2022/03/15 04:34:49;;;;;;;12.85;6.72;;;;;;;;;;5322970;28;20024;-66
2022/03/15 04:37:21;;;;;;;13.55;7.78;;;;;;;;;;5323849;28;20026;-68
2022/03/15 04:39:53;;;;;;;12.13;6.35;;;;;;;;;;5322260;28;20035;-68
2022/03/15 04:42:24;;;;;;;11.65;7.20;;;;;;;;;;5323516;28;20027;-68
2022/03/15 04:44:55;;;;;;;17.83;7.35;;;;;;;;;;5322880;28;20346;-67
2022/03/15 04:47:27;;;;;;;14.95;6.95;;;;;;;;;;5322623;28;20020;-68
2022/03/15 04:49:58;;;;;;;12.02;7.57;;;;;;;;;;5322932;28;20016;-68
2022/03/15 04:52:29;;;;;;;11.90;7.15;;;;;;;;;;5322134;28;20008;-67
2022/03/15 04:55:01;;;;;;;12.57;6.70;;;;;;;;;;5323036;28;20035;-68
2022/03/15 04:57:32;;;;;;;20.60;6.95;;;;;;;;;;5323166;28;20015;-69
2022/03/15 05:00:08;;;;;;;15.02;7.32;;;;;;;;;;5322277;28;20036;-68
2022/03/15 05:02:41;;;;;;;17.00;7.22;;;;;;;;;;5323133;28;20043;-68
2022/03/15 05:05:15;;;;;;;20.05;7.53;;;;;;;;;;5323031;28;20023;-68
2022/03/15 05:07:46;;;;;;;17.15;8.63;;;;;;;;;;5321969;28;20046;-68
2022/03/15 05:13:07;;;;;;;16.42;8.27;;;;;;;;;;5327091;28;20056;-67
2022/03/15 05:15:39;;;;;;;15.20;7.70;;;;;;;;;;5326621;28;20016;-66
2022/03/15 05:18:10;;;;;;;20.88;7.80;;;;;;;;;;5327166;28;20028;-68
2022/03/15 05:20:41;;;;;;;13.60;7.04;;;;;;;;;;5326143;28;20040;-68
2022/03/15 05:23:12;;;;;;;12.73;7.43;;;;;;;;;;5327082;28;20007;-68
2022/03/15 05:25:44;;;;;;;12.52;6.63;;;;;;;;;;5327097;28;20098;-69
2022/03/15 05:28:15;;;;;;;15.55;7.18;;;;;;;;;;5326431;28;20018;-69
2022/03/15 05:30:46;;;;;;;15.57;7.20;;;;;;;;;;5326377;28;20023;-68
2022/03/15 05:33:17;;;;;;;14.73;7.05;;;;;;;;;;5327067;28;20055;-69
2022/03/15 05:35:49;;;;;;;14.25;6.93;;;;;;;;;;5325791;28;20098;-68
2022/03/15 05:38:20;;;;;;;18.35;7.68;;;;;;;;;;5327018;28;20019;-68
2022/03/15 05:40:51;;;;;;;15.75;7.95;;;;;;;;;;5326319;28;20038;-69
2022/03/15 05:43:22;;;;;;;13.57;6.82;;;;;;;;;;5325996;28;20024;-68
2022/03/15 05:45:53;;;;;;;13.30;7.43;;;;;;;;;;5326131;28;20030;-69
2022/03/15 05:48:25;;;;;;;13.65;7.43;;;;;;;;;;5326190;28;20011;-68
2022/03/15 05:50:56;;;;;;;12.27;6.93;;;;;;;;;;5326198;28;20047;-69
2022/03/15 05:53:27;;;;;;;13.50;7.20;;;;;;;;;;5326504;28;20016;-67
2022/03/15 05:55:59;;;;;;;13.38;8.02;;;;;;;;;;5325309;28;20030;-67
2022/03/15 05:58:30;;;;;;;14.98;6.50;;;;;;;;;;5326371;28;20020;-68
2022/03/15 06:01:01;;;;;;;14.40;7.05;;;;;;;;;;5326346;28;20080;-68
2022/03/15 06:03:32;;;;;;;14.48;7.15;;;;;;;;;;5325274;28;20026;-69
2022/03/15 06:06:03;;;;;;;17.30;8.05;;;;;;;;;;5325842;28;20029;-69
2022/03/15 06:08:34;;;;;;;14.68;7.13;;;;;;;;;;5325795;28;20261;-68
2022/03/15 06:11:07;;;;;;;12.34;7.24;;;;;;;;;;5325194;28;20408;-68
2022/03/15 06:13:38;;;;;;;14.18;7.50;;;;;;;;;;5325945;28;20199;-69
2022/03/15 06:16:09;;;;;;;14.52;7.78;;;;;;;;;;5325936;28;20024;-68
2022/03/15 06:18:40;;;;;;;13.74;7.16;;;;;;;;;;5325101;28;20038;-66
2022/03/15 06:21:11;;;;;;;12.02;6.92;;;;;;;;;;5324633;28;20031;-68
2022/03/15 06:23:42;;;;;;;14.96;8.14;;;;;;;;;;5324986;28;20386;-69
2022/03/15 06:26:15;;;;;;;11.96;7.72;;;;;;;;;;5326013;28;20031;-69
2022/03/15 06:28:46;;;;;;;15.48;7.47;;;;;;;;;;5325510;28;20141;-67
2022/03/15 06:31:17;;;;;;;15.00;7.50;;;;;;;;;;5325111;28;20474;-67
2022/03/15 06:33:49;;;;;;;15.15;7.30;;;;;;;;;;5325376;28;20099;-69
2022/03/15 06:36:20;;;;;;;13.57;7.07;;;;;;;;;;5325806;28;20023;-68
2022/03/15 06:38:51;;;;;;;13.20;7.57;;;;;;;;;;5324408;28;20023;-68
2022/03/15 06:41:22;;;;;;;18.38;7.82;;;;;;;;;;5325695;28;20264;-68
2022/03/15 06:43:53;;;;;;;10.90;6.60;;;;;;;;;;5324784;28;20015;-68
2022/03/15 06:46:24;;;;;;;17.82;7.34;;;;;;;;;;5325046;28;20168;-68
2022/03/15 06:48:56;;;;;;;12.98;8.76;;;;;;;;;;5325047;28;20031;-68
2022/03/15 06:51:27;;;;;;;17.05;7.60;;;;;;;;;;5325513;28;20037;-68
2022/03/15 06:53:58;;;;;;;16.60;7.60;;;;;;;;;;5324175;28;20024;-67
2022/03/15 06:56:30;;;;;;;14.73;7.15;;;;;;;;;;5325043;28;20038;-68
2022/03/15 06:59:01;;;;;;;14.30;7.30;;;;;;;;;;5324536;28;20475;-68
2022/03/15 07:01:32;;;;;;;14.36;8.34;;;;;;;;;;5325276;28;20039;-68
2022/03/15 07:04:03;;;;;;;18.23;8.32;;;;;;;;;;5325000;28;20051;-68
2022/03/15 07:06:34;;;;;;;15.68;7.50;;;;;;;;;;5323903;28;20828;-68
2022/03/15 07:09:05;;;;;;;13.46;7.72;;;;;;;;;;5325126;28;20020;-68
2022/03/15 07:11:38;;;;;;;15.28;7.06;;;;;;;;;;5324846;28;20012;-68
2022/03/15 07:14:09;;;;;;;19.77;7.70;;;;;;;;;;5324118;28;20058;-67
2022/03/15 07:16:40;;;;;;;19.65;6.53;;;;;;;;;;5324735;28;20043;-68
2022/03/15 07:19:11;;;;;;;11.57;6.03;;;;;;;;;;5324667;28;20400;-67
2022/03/15 07:21:43;;;;;;;14.26;8.14;;;;;;;;;;5324072;28;20046;-68
2022/03/15 07:24:14;;;;;;;17.75;6.75;;;;;;;;;;5324667;28;20031;-67
2022/03/15 07:26:45;;;;;;;15.06;6.22;;;;;;;;;;5324336;28;20020;-67
2022/03/15 07:29:16;;;;;;;18.80;6.50;;;;;;;;;;5324094;28;20012;-68
2022/03/15 07:31:47;;;;;;;12.68;5.93;;;;;;;;;;5324142;28;20011;-68
2022/03/15 07:34:19;;;;;;;15.77;5.95;;;;;;;;;;5323801;28;20028;-67
2022/03/15 07:36:50;;;;;;;10.60;5.88;;;;;;;;;;5324171;28;20069;-67
2022/03/15 07:39:22;;;;;;;14.20;6.20;;;;;;;;;;5324613;28;20031;-68
2022/03/15 07:41:53;;;;;;;13.15;5.95;;;;;;;;;;5323208;28;20015;-68
2022/03/15 07:44:24;;;;;;;13.32;5.15;;;;;;;;;;5312414;28;20011;-67
2022/03/15 07:46:55;;;;;;;12.75;5.68;;;;;;;;;;5302229;28;20071;-67
2022/03/15 07:49:27;;;;;;;11.15;5.55;;;;;;;;;;5301066;28;20028;-67
2022/03/15 07:51:58;;;;;;;14.34;5.76;;;;;;;;;;5302511;28;20065;-68
2022/03/15 07:54:29;;;;;;;17.74;5.76;;;;;;;;;;5302755;28;20023;-68
2022/03/15 07:57:00;;;;;;;14.65;5.30;;;;;;;;;;5301517;28;20104;-68
2022/03/15 07:59:32;;;;;;;10.80;5.75;;;;;;;;;;5302115;28;20024;-67
2022/03/15 08:02:03;;;;;;;12.40;4.95;;;;;;;;;;5301796;28;20451;-68
2022/03/15 08:04:34;;;;;;;10.13;5.30;;;;;;;;;;5302280;28;20153;-68
2022/03/15 08:07:05;;;;;;;14.77;4.00;;;;;;;;;;5302554;28;20024;-68
2022/03/15 08:09:38;;;;;;;12.23;4.65;;;;;;;;;;5301720;28;20110;-68
2022/03/15 08:12:09;;;;;;;13.95;4.75;;;;;;;;;;5302486;28;20036;-68
2022/03/15 08:14:40;;;;;;;12.35;4.20;;;;;;;;;;5302460;28;20031;-68
2022/03/15 08:17:12;;;;;;;13.30;4.54;;;;;;;;;;5301409;28;20572;-68
2022/03/15 08:19:43;;;;;;;8.50;3.58;;;;;;;;;;5298732;28;20462;-67
2022/03/15 08:22:14;;;;;;;11.35;3.45;;;;;;;;;;5299488;28;20027;-67
2022/03/15 08:24:45;;;;;;;10.06;3.48;;;;;;;;;;5301129;28;20497;-68
2022/03/15 08:27:17;;;;;;;12.00;3.85;;;;;;;;;;5302057;28;20032;-69
2022/03/15 08:29:48;;;;;;;9.75;3.50;;;;;;;;;;5301813;28;20949;-69
2022/03/15 08:32:19;;;;;;;10.95;4.13;;;;;;;;;;5301060;28;20116;-67
2022/03/15 08:34:50;;;;;;;17.45;4.38;;;;;;;;;;5301516;28;20034;-68
2022/03/15 08:37:21;;;;;;;11.82;3.22;;;;;;;;;;5301431;28;20035;-69
2022/03/15 08:39:53;;;;;;;9.70;3.22;;;;;;;;;;5301162;28;20028;-69
2022/03/15 08:42:24;;;;;;;11.07;3.42;;;;;;;;;;5302454;28;20455;-68
2022/03/15 08:44:55;;;;;;;12.95;3.25;;;;;;;;;;5299890;28;20028;-69
2022/03/15 08:47:28;;;;;;;6.18;2.75;;;;;;;;;;5301445;28;20505;-68
2022/03/15 08:49:59;;;;;;;5.60;2.30;;;;;;;;;;5301395;28;20016;-68
2022/03/15 08:52:30;;;;;;;13.96;3.96;;;;;;;;;;5301301;28;20023;-69
2022/03/15 08:55:02;;;;;;;8.86;3.36;;;;;;;;;;5301702;28;20085;-67
2022/03/15 08:57:33;;;;;;;10.85;3.35;;;;;;;;;;5298466;28;20500;-68
2022/03/15 09:00:05;;;;;;;11.13;3.17;;;;;;;;;;5300456;28;20028;-67
2022/03/15 09:02:37;;;;;;;10.48;2.90;;;;;;;;;;5301671;28;20008;-68
2022/03/15 09:05:08;;;;;;;10.35;3.08;;;;;;;;;;5301284;28;20016;-68
2022/03/15 09:07:40;;;;;;;12.73;3.55;;;;;;;;;;5301119;28;20009;-68
2022/03/15 09:10:12;;;;;;;6.00;2.42;;;;;;;;;;5301594;28;20047;-69
2022/03/15 09:12:43;;;;;;;7.65;2.85;;;;;;;;;;5300793;28;20083;-67
2022/03/15 09:15:14;;;;;;;9.63;3.03;;;;;;;;;;5301448;28;20020;-68
2022/03/15 09:17:45;;;;;;;9.15;2.70;;;;;;;;;;5301092;28;20111;-68
2022/03/15 09:20:16;;;;;;;13.88;3.05;;;;;;;;;;5300582;28;20371;-67
2022/03/15 09:22:48;;;;;;;11.82;2.85;;;;;;;;;;5297037;28;20024;-68
2022/03/15 09:25:19;;;;;;;7.95;2.60;;;;;;;;;;5301286;28;20024;-66
2022/03/15 09:27:50;;;;;;;8.45;2.92;;;;;;;;;;5300319;28;20213;-66
2022/03/15 09:30:22;;;;;;;11.50;2.85;;;;;;;;;;5301473;28;20771;-69
2022/03/15 09:32:53;;;;;;;11.30;2.90;;;;;;;;;;5301039;28;20027;-66
2022/03/15 09:35:24;;;;;;;5.50;2.53;;;;;;;;;;5300788;28;20026;-66
2022/03/15 09:37:55;;;;;;;7.50;2.92;;;;;;;;;;5301305;28;20024;-67
2022/03/15 09:40:27;;;;;;;11.48;2.83;;;;;;;;;;5300901;28;20301;-66
2022/03/15 09:42:59;;;;;;;11.48;2.88;;;;;;;;;;5300773;28;20019;-67
2022/03/15 09:45:32;;;;;;;12.30;3.10;;;;;;;;;;5301366;28;20051;-68
2022/03/15 09:48:04;;;;;;;8.57;3.30;;;;;;;;;;5300572;28;20016;-67
2022/03/15 09:50:36;;;;;;;12.07;2.83;;;;;;;;;;5300691;28;20032;-67
2022/03/15 09:53:08;;;;;;;11.95;2.92;;;;;;;;;;5301458;28;20402;-68
2022/03/15 09:55:40;;;;;;;14.18;3.63;;;;;;;;;;5301335;28;20020;-68
2022/03/15 09:58:12;;;;;;;12.20;2.55;;;;;;;;;;5305276;28;20020;-68
2022/03/15 10:00:44;;;;;;;10.25;2.88;;;;;;;;;;5305241;28;20028;-67
2022/03/15 10:03:16;;;;;;;8.70;2.88;;;;;;;;;;5304669;28;20039;-67
2022/03/15 10:05:49;;;;;;;11.13;2.55;;;;;;;;;;5304826;28;20118;-68
2022/03/15 10:08:20;;;;;;;10.98;2.58;;;;;;;;;;5305101;28;20472;-67
2022/03/15 10:10:52;;;;;;;8.50;2.55;;;;;;;;;;5303867;28;20031;-68
2022/03/15 10:13:23;;;;;;;10.30;2.60;;;;;;;;;;5304974;28;20546;-67
2022/03/15 10:15:56;;;;;;;9.93;2.90;;;;;;;;;;5303871;28;20526;-67
2022/03/15 10:18:27;;;;;;;8.93;3.05;;;;;;;;;;5304852;28;20020;-68
2022/03/15 10:21:02;;;;;;;11.85;2.50;;;;;;;;;;5304603;28;20108;-68
2022/03/15 10:23:37;;;;;;;11.45;3.25;;;;;;;;;;5303941;28;20026;-66
2022/03/15 10:26:08;;;;;;;9.02;2.63;;;;;;;;;;5304599;28;20498;-68
2022/03/15 10:28:40;;;;;;;12.02;3.15;;;;;;;;;;5304374;28;20027;-68
2022/03/15 10:31:11;;;;;;;9.00;2.90;;;;;;;;;;5303559;28;20387;-69
2022/03/15 10:33:43;;;;;;;10.98;3.13;;;;;;;;;;5304502;28;20028;-67
2022/03/15 10:36:17;;;;;;;8.02;2.58;;;;;;;;;;5304414;28;20019;-68
2022/03/15 10:38:50;;;;;;;10.50;2.33;;;;;;;;;;5303012;28;20098;-67
2022/03/15 10:41:21;;;;;;;10.02;2.80;;;;;;;;;;5304488;28;20421;-67
2022/03/15 10:43:53;;;;;;;7.60;2.23;;;;;;;;;;5284654;28;20027;-67
2022/03/15 10:46:25;;;;;;;9.50;2.17;;;;;;;;;;5304519;28;20254;-67
2022/03/15 10:49:03;;;;;;;9.43;2.80;;;;;;;;;;5303907;28;20073;-68
2022/03/15 10:51:37;;;;;;;14.47;3.70;;;;;;;;;;5303283;28;20483;-68
2022/03/15 10:54:09;;;;;;;13.45;3.03;;;;;;;;;;5304101;28;20024;-69
2022/03/15 10:56:40;;;;;;;9.00;2.55;;;;;;;;;;5304219;28;20036;-67
2022/03/15 10:59:15;;;;;;;9.02;2.90;;;;;;;;;;5302441;28;20016;-68
2022/03/15 11:01:47;;;;;;;7.20;2.13;;;;;;;;;;5303248;28;20024;-67
2022/03/15 11:04:19;;;;;;;14.35;2.72;;;;;;;;;;5303840;28;20412;-68
2022/03/15 11:06:50;;;;;;;6.25;1.92;;;;;;;;;;5302623;28;20105;-68
2022/03/15 11:09:24;;;;;;;8.23;1.67;;;;;;;;;;5303822;28;20107;-68
2022/03/15 11:12:02;;;;;;;6.00;1.73;;;;;;;;;;5302402;28;20067;-68
2022/03/15 11:14:44;;;;;;;8.80;2.05;;;;;;;;;;5303587;28;20031;-67
2022/03/15 11:17:17;;;;;;;9.55;1.90;;;;;;;;;;5304228;28;20087;-68
2022/03/15 11:19:50;;;;;;;9.82;2.58;;;;;;;;;;5302419;28;20035;-68
2022/03/15 11:22:23;;;;;;;7.93;2.30;;;;;;;;;;5304006;28;20122;-66
2022/03/15 11:25:08;;;;;;;8.13;1.92;;;;;;;;;;5303061;28;20016;-68
2022/03/15 11:27:40;;;;;;;9.77;2.53;;;;;;;;;;5302843;28;20035;-69
2022/03/15 11:30:13;;;;;;;5.40;1.85;;;;;;;;;;5303212;28;20024;-68
2022/03/15 11:32:44;;;;;;;6.75;1.67;;;;;;;;;;5303089;28;20020;-68
2022/03/15 11:35:19;;;;;;;7.97;2.45;;;;;;;;;;5302679;28;20081;-68
2022/03/15 11:37:52;;;;;;;7.22;2.65;;;;;;;;;;5302737;28;20020;-69
2022/03/15 11:40:24;;;;;;;6.65;2.35;;;;;;;;;;5302745;28;20031;-69
2022/03/15 11:43:01;;;;;;;8.35;1.90;;;;;;;;;;5302920;28;20093;-68
2022/03/15 11:45:36;;;;;;;6.38;2.35;;;;;;;;;;5302980;28;20024;-68
2022/03/15 11:48:07;;;;;;;9.55;2.15;;;;;;;;;;5302049;28;20106;-68
2022/03/15 11:50:49;;;;;;;11.73;2.30;;;;;;;;;;5303017;28;20020;-68
2022/03/15 11:53:28;;;;;;;8.02;2.10;;;;;;;;;;5302695;28;20054;-68
2022/03/15 11:56:03;;;;;;;8.63;2.38;;;;;;;;;;5301553;28;20016;-67
2022/03/15 11:58:35;;;;;;;8.73;2.08;;;;;;;;;;5302751;28;20074;-68
2022/03/15 12:01:10;;;;;;;8.30;2.40;;;;;;;;;;5302424;28;20032;-69
2022/03/15 12:03:51;;;;;;;7.13;2.75;;;;;;;;;;5302839;28;20463;-68
2022/03/15 12:06:23;;;;;;;10.15;2.78;;;;;;;;;;5302964;28;20389;-68
2022/03/15 12:09:03;;;;;;;8.88;2.00;;;;;;;;;;5301295;28;20105;-68
2022/03/15 12:11:35;;;;;;;10.38;2.67;;;;;;;;;;5302641;28;20060;-68
2022/03/15 12:14:11;;;;;;;11.63;3.00;;;;;;;;;;5302541;28;20091;-68
2022/03/15 12:16:51;;;;;;;7.43;1.90;;;;;;;;;;5301697;28;20444;-68
2022/03/15 12:19:39;;;;;;;5.90;1.60;;;;;;;;;;5301694;28;20036;-69
2022/03/15 12:22:21;;;;;;;8.45;2.28;;;;;;;;;;5296315;28;20028;-68
2022/03/15 12:25:04;;;;;;;6.45;2.80;;;;;;;;;;5300073;28;20036;-70
2022/03/15 12:27:43;;;;;;;7.93;2.22;;;;;;;;;;5301761;28;20020;-68
2022/03/15 12:30:26;;;;;;;5.47;1.23;;;;;;;;;;5301123;28;20023;-68
2022/03/15 12:32:57;;;;;;;4.25;1.67;;;;;;;;;;5301689;28;20082;-68
2022/03/15 12:35:30;;;;;;;6.13;1.38;;;;;;;;;;5302022;28;20016;-69
2022/03/15 12:38:08;;;;;;;6.10;1.55;;;;;;;;;;5301435;28;20100;-68
2022/03/15 12:40:42;;;;;;;5.32;0.80;;;;;;;;;;5301917;28;20378;-68
2022/03/15 12:43:21;;;;;;;5.43;1.10;;;;;;;;;;5301705;28;20016;-69
2022/03/15 12:45:53;;;;;;;5.40;1.08;;;;;;;;;;5301014;28;20028;-68
2022/03/15 12:48:28;;;;;;;4.80;1.05;;;;;;;;;;5300356;28;20023;-68
2022/03/15 12:51:01;;;;;;;2.88;0.70;;;;;;;;;;5300297;28;20461;-68
2022/03/15 12:53:33;;;;;;;5.97;1.15;;;;;;;;;;5301748;28;20024;-68
2022/03/15 12:56:04;;;;;;;6.03;1.30;;;;;;;;;;5301716;28;20016;-68
2022/03/15 12:58:36;;;;;;;3.78;1.00;;;;;;;;;;5301100;28;20556;-68
2022/03/15 13:01:11;;;;;;;4.15;1.08;;;;;;;;;;5301817;28;20031;-68
2022/03/15 13:03:42;;;;;;;5.90;1.52;;;;;;;;;;5302003;28;20031;-68
2022/03/15 13:06:18;;;;;;;4.57;1.33;;;;;;;;;;5301223;28;20382;-68
2022/03/15 13:08:56;;;;;;;5.20;1.17;;;;;;;;;;5301553;28;20024;-69
2022/03/15 13:11:28;;;;;;;6.60;1.33;;;;;;;;;;5300978;28;20020;-69
2022/03/15 13:13:59;;;;;;;4.72;1.00;;;;;;;;;;5301346;28;20035;-68
2022/03/15 13:16:32;;;;;;;3.13;1.00;;;;;;;;;;5302097;28;20035;-68
2022/03/15 13:19:04;;;;;;;2.63;0.98;;;;;;;;;;5300896;28;20101;-69
2022/03/15 13:21:38;;;;;;;2.38;0.82;;;;;;;;;;5301773;28;20486;-68
2022/03/15 13:24:10;;;;;;;3.60;0.90;;;;;;;;;;5302033;28;20020;-68
2022/03/15 13:26:41;;;;;;;4.57;1.48;;;;;;;;;;5300991;28;20024;-68
2022/03/15 13:29:13;;;;;;;4.97;1.00;;;;;;;;;;5301815;28;20042;-68
2022/03/15 13:31:45;;;;;;;6.30;1.30;;;;;;;;;;5303735;28;20024;-68
2022/03/15 13:34:26;;;;;;;4.40;0.90;;;;;;;;;;5305139;28;20030;-68
2022/03/15 13:37:04;;;;;;;2.78;0.70;;;;;;;;;;5305634;28;20497;-67
2022/03/15 13:39:36;;;;;;;3.83;1.00;;;;;;;;;;5304923;28;20103;-68
2022/03/15 13:42:09;;;;;;;7.03;0.88;;;;;;;;;;5305615;28;20095;-68
2022/03/15 13:44:41;;;;;;;3.03;0.80;;;;;;;;;;5305321;28;20360;-68
2022/03/15 13:47:14;;;;;;;2.80;0.73;;;;;;;;;;5304756;28;20352;-68
2022/03/15 13:49:48;;;;;;;3.95;0.70;;;;;;;;;;5305142;28;20024;-67
2022/03/15 13:52:23;;;;;;;2.72;0.90;;;;;;;;;;5305665;28;20012;-68
2022/03/15 13:55:10;;;;;;;4.38;0.80;;;;;;;;;;5304018;28;20064;-67
2022/03/15 13:57:42;;;;;;;4.63;0.80;;;;;;;;;;5305552;28;20035;-68
2022/03/15 14:00:18;;;;;;;5.78;0.93;;;;;;;;;;5305443;28;20036;-68
2022/03/15 14:02:51;;;;;;;5.15;0.77;;;;;;;;;;5303977;28;20333;-69
2022/03/15 14:05:24;;;;;;;2.58;0.93;;;;;;;;;;5305277;28;20028;-68
2022/03/15 14:08:03;;;;;;;3.80;0.77;;;;;;;;;;5304007;28;20028;-68
2022/03/15 14:10:34;;;;;;;6.13;0.80;;;;;;;;;;5304882;28;20035;-68
2022/03/15 14:13:14;;;;;;;3.58;0.93;;;;;;;;;;5304698;28;20044;-68
2022/03/15 14:15:47;;;;;;;;;;;;;;;;;;5304156;28;20023;-68
2022/03/15 14:18:25;;;;;;;2.60;0.80;;;;;;;;;;5304875;28;19908;-68
2022/03/15 14:20:56;;;;;;;2.92;0.90;;;;;;;;;;5304406;28;20177;-68
2022/03/15 14:23:29;;;;;;;3.73;0.93;;;;;;;;;;5304274;28;20091;-68
2022/03/15 14:26:01;;;;;;;2.85;0.80;;;;;;;;;;5304610;28;20399;-69
2022/03/15 14:28:34;;;;;;;5.47;0.93;;;;;;;;;;5304400;28;20103;-68
2022/03/15 14:31:05;;;;;;;3.03;0.73;;;;;;;;;;5303908;28;20068;-68
2022/03/15 14:33:37;;;;;;;2.03;0.63;;;;;;;;;;5304728;28;20019;-68
2022/03/15 14:36:08;;;;;;;3.47;0.77;;;;;;;;;;5303637;28;20300;-69
2022/03/15 14:38:41;;;;;;;3.10;1.00;;;;;;;;;;5304238;28;20024;-69
2022/03/15 14:41:12;;;;;;;7.93;0.93;;;;;;;;;;5304375;28;20117;-68
2022/03/15 14:43:44;;;;;;;4.50;1.20;;;;;;;;;;5302901;28;20316;-68
2022/03/15 14:46:18;;;;;;;4.82;1.20;;;;;;;;;;5304716;28;20019;-68
2022/03/15 14:48:49;;;;;;;8.98;1.63;;;;;;;;;;5303929;28;20012;-68
2022/03/15 14:51:20;;;;;;;5.07;1.50;;;;;;;;;;5303535;28;20012;-68
2022/03/15 14:53:55;;;;;;;3.75;1.20;;;;;;;;;;5303882;28;20027;-68
2022/03/15 14:56:26;;;;;;;5.75;1.05;;;;;;;;;;5304392;28;20538;-68
2022/03/15 14:58:58;;;;;;;4.68;0.80;;;;;;;;;;5302761;28;20095;-67
2022/03/15 15:01:29;;;;;;;3.08;0.70;;;;;;;;;;5303487;28;20123;-69
2022/03/15 15:04:02;;;;;;;3.08;0.70;;;;;;;;;;5303342;28;20114;-67
2022/03/15 15:06:35;;;;;;;2.33;0.70;;;;;;;;;;5303801;28;20027;-66